Time;durP1;ratioP1;P1;durP2;ratioP2;P2;SDS_P1;SDS_P2;PMS_P1;PMS_P2;Temp;Humidity;BMP_temperature;BMP_pressure;BME280_temperature;BME280_humidity;BME280_pressure;Samples;Min_cycle;Max_cycle;Signal;HPM_P1;HPM_P2
2022/07/07 00:00:15;;;;;;;2.50;1.50;;;20.40;49.40;;;20.86;36.43;99261.09;4981885;28;120324;-89
2022/07/07 00:02:41;;;;;;;2.70;1.40;;;20.40;49.30;;;20.84;36.34;99261.47;4974938;28;119140;-89
2022/07/07 00:05:08;;;;;;;2.40;1.70;;;20.40;49.20;;;20.82;36.36;99255.44;4976032;28;124046;-89
2022/07/07 00:07:34;;;;;;;1.87;1.53;;;20.30;49.10;;;20.79;36.65;99260.94;4974183;28;124058;-90
2022/07/07 00:10:01;;;;;;;1.80;1.60;;;20.30;49.10;;;20.76;36.36;99258.88;4977012;28;118327;-87
2022/07/07 00:12:27;;;;;;;2.50;1.80;;;20.30;49.20;;;20.77;36.47;99260.50;4980277;28;119120;-88
2022/07/07 00:14:54;;;;;;;2.20;1.60;;;20.30;49.30;;;20.80;36.59;99262.59;4972810;28;124090;-88
2022/07/07 00:17:20;;;;;;;2.57;1.80;;;20.30;49.40;;;20.80;36.45;99257.78;4987113;28;124161;-88
2022/07/07 00:19:47;;;;;;;1.67;1.40;;;20.30;49.40;;;20.81;36.58;99265.03;4967201;28;119249;-89
2022/07/07 00:22:13;;;;;;;2.50;1.80;;;21.00;50.00;;;20.82;36.46;99254.59;4987957;28;119174;-90
2022/07/07 00:24:40;;;;;;;2.13;1.47;;;20.30;49.40;;;20.82;36.41;99254.59;4978405;28;124119;-89
2022/07/07 00:27:06;;;;;;;6.83;1.70;;;20.30;49.50;;;20.82;36.66;99260.22;4985659;28;124316;-90
2022/07/07 03:19:34;;;;;;;2.30;1.50;;;19.50;52.60;;;19.95;39.38;99178.94;4973290;28;124598;-89
2022/07/07 03:22:05;;;;;;;4.33;1.70;;;19.50;52.80;;;19.98;39.45;99178.19;4984728;28;123615;-89
2022/07/07 03:24:31;;;;;;;1.73;1.30;;;19.50;52.90;;;20.02;39.53;99161.47;4986935;28;119770;-89
2022/07/07 03:27:00;;;;;;;3.30;1.50;;;19.50;52.90;;;20.04;39.55;99173.13;5002006;28;119425;-89
2022/07/07 03:29:27;;;;;;;2.97;1.80;;;19.50;53.00;;;20.08;39.66;99168.41;4966598;28;124288;-89
2022/07/07 03:31:53;;;;;;;3.00;1.60;;;19.60;53.10;;;20.08;39.52;99154.38;4964791;28;123772;-89
2022/07/07 03:34:20;;;;;;;6.10;1.40;;;19.60;53.20;;;20.04;39.27;99159.94;4975012;28;118485;-90
2022/07/07 03:36:47;;;;;;;2.67;1.40;;;19.60;53.00;;;20.02;39.47;99156.66;4987545;28;119400;-89
2022/07/07 03:39:14;;;;;;;2.43;1.47;;;19.50;53.00;;;20.01;39.43;99160.63;4983663;28;123995;-89
2022/07/07 03:41:41;;;;;;;5.63;1.30;;;19.50;53.80;;;20.02;39.48;99155.88;4976035;28;123772;-88
2022/07/07 03:44:07;;;;;;;1.93;1.50;;;19.50;53.10;;;19.99;39.62;99154.59;4976319;28;118809;-89
2022/07/07 03:46:34;;;;;;;2.47;1.40;;;19.50;53.20;;;19.95;39.67;99150.09;4973565;28;118929;-88
2022/07/07 03:49:00;;;;;;;2.37;1.40;;;19.50;53.20;;;19.95;39.65;99145.28;4977681;28;124083;-89
2022/07/07 03:51:27;;;;;;;6.07;1.60;;;19.50;53.30;;;19.99;39.58;99136.97;4976403;28;123521;-88
2022/07/07 03:53:53;;;;;;;3.67;1.30;;;19.50;53.40;;;20.00;39.58;99135.78;4979381;28;119194;-89
2022/07/07 03:56:20;;;;;;;2.33;1.40;;;19.50;53.40;;;20.01;39.74;99140.19;4977693;28;118484;-90
2022/07/07 03:58:46;;;;;;;2.90;1.40;;;19.50;53.50;;;20.01;39.64;99137.38;4971170;28;123536;-88
2022/07/07 04:01:13;;;;;;;2.63;1.37;;;19.50;53.60;;;20.04;39.92;99143.09;4983997;28;123792;-88
2022/07/07 04:03:39;;;;;;;2.77;1.47;;;19.50;53.60;;;20.05;39.69;99139.09;4978884;28;119521;-88
2022/07/07 04:06:06;;;;;;;3.30;1.43;;;19.50;53.60;;;20.08;39.94;99145.97;4979162;28;118961;-89
2022/07/07 04:08:33;;;;;;;1.40;1.20;;;19.50;53.80;;;20.10;39.94;99134.41;4982858;28;124221;-88
2022/07/07 04:10:59;;;;;;;2.63;1.70;;;19.60;54.00;;;20.12;39.87;99143.22;4982208;28;124526;-88
2022/07/07 04:13:26;;;;;;;4.70;1.40;;;19.60;53.90;;;20.14;39.58;99138.06;4982476;28;120196;-89
2022/07/07 04:15:52;;;;;;;2.93;1.43;;;19.60;53.80;;;20.13;39.72;99140.06;4988233;28;118826;-88
2022/07/07 04:18:19;;;;;;;2.17;1.43;;;19.60;53.60;;;20.10;39.72;99145.63;4982850;28;124035;-88
2022/07/07 04:20:45;;;;;;;2.23;1.47;;;19.60;53.60;;;20.03;40.08;99143.44;4988240;28;123951;-89
2022/07/07 04:23:12;;;;;;;3.83;1.50;;;19.60;53.60;;;19.96;39.98;99146.09;4985835;28;119366;-87
2022/07/07 04:25:38;;;;;;;2.87;1.70;;;19.50;53.60;;;19.90;40.00;99151.19;4981827;28;118082;-88
2022/07/07 04:31:46;;;;;;;5.87;1.63;;;19.50;54.20;;;19.71;40.56;99140.72;4985502;28;124407;-88
2022/07/07 04:34:14;;;;;;;2.53;1.50;;;19.40;54.20;;;19.66;40.57;99149.44;4979383;28;119533;-89
2022/07/07 04:36:40;;;;;;;1.73;1.47;;;19.30;54.20;;;19.61;40.65;99141.25;4985930;28;119339;-88
2022/07/07 04:39:08;;;;;;;1.97;1.60;;;19.20;54.40;;;19.58;40.75;99150.41;4980938;28;124901;-88
2022/07/07 04:41:35;;;;;;;2.50;1.53;;;19.20;54.40;;;19.56;40.87;99138.78;4983182;28;123835;-89
2022/07/07 04:44:02;;;;;;;2.23;1.50;;;19.10;54.50;;;19.55;40.74;99137.13;4986953;28;119449;-88
2022/07/07 04:46:29;;;;;;;2.90;1.50;;;19.20;54.70;;;19.55;40.79;99137.13;4987157;28;119108;-89
2022/07/07 04:48:55;;;;;;;1.67;1.37;;;19.10;54.60;;;19.58;40.86;99142.00;4979877;28;124125;-88
2022/07/07 04:51:23;;;;;;;2.80;1.50;;;19.10;54.70;;;19.60;40.90;99142.44;4979385;28;123608;-87
2022/07/07 04:53:50;;;;;;;2.23;1.27;;;19.20;54.80;;;19.62;40.79;99140.09;4969629;28;119778;-88
2022/07/07 04:56:17;;;;;;;2.50;1.40;;;19.20;54.80;;;;;;4969954;28;119135;-92
2022/07/07 04:58:43;;;;;;;4.00;1.30;;;19.20;54.80;;;19.64;40.93;99126.53;4979570;28;121519;-87
2022/07/07 05:01:10;;;;;;;3.60;1.63;;;19.20;54.80;;;19.62;40.67;99131.69;4980507;28;122761;-90
2022/07/07 05:03:36;;;;;;;3.40;1.80;;;19.20;54.80;;;19.63;40.88;99124.91;4968596;28;120719;-89
2022/07/07 05:06:03;;;;;;;3.00;1.67;;;19.20;54.80;;;;;;4966916;28;119877;-88
2022/07/07 05:08:30;;;;;;;2.00;1.47;;;19.20;54.80;;;19.64;40.92;99135.75;4967106;28;123646;-90
2022/07/07 05:10:57;;;;;;;1.60;1.50;;;19.20;54.90;;;19.66;40.89;99132.59;4968539;28;124536;-87
2022/07/07 05:13:23;;;;;;;1.80;1.40;;;19.60;55.20;;;19.66;40.88;99121.38;4966392;28;119314;-89
2022/07/07 05:15:50;;;;;;;2.07;1.30;;;19.20;54.90;;;19.68;40.81;99129.44;4965969;28;118074;-90
2022/07/07 05:18:16;;;;;;;2.40;1.43;;;19.20;54.90;;;19.70;40.93;99127.09;4970579;28;124120;-90
2022/07/07 05:20:43;;;;;;;3.63;1.97;;;19.20;55.00;;;19.69;40.89;99117.03;4971776;28;122803;-88
2022/07/07 05:23:10;;;;;;;2.00;1.60;;;19.20;55.00;;;19.67;40.82;99120.22;4969700;28;118555;-89
2022/07/07 05:25:37;;;;;;;2.10;1.80;;;19.20;55.00;;;19.69;40.89;99129.06;4966663;28;119075;-88
2022/07/07 05:28:04;;;;;;;1.93;1.40;;;19.20;55.00;;;19.70;40.79;99132.72;4967967;28;124035;-89
2022/07/07 05:30:30;;;;;;;1.30;1.10;;;19.20;55.00;;;19.71;40.87;99132.31;4985415;28;123196;-90
2022/07/07 05:32:56;;;;;;;2.83;1.53;;;19.20;55.10;;;19.72;40.87;99138.75;4971278;28;118346;-88
2022/07/07 05:35:23;;;;;;;2.37;1.80;;;19.20;55.10;;;19.73;41.01;99131.97;4969518;28;119221;-87
2022/07/07 05:37:50;;;;;;;7.03;1.67;;;19.20;55.20;;;19.73;41.08;99129.97;4970341;28;123936;-86
2022/07/07 05:40:16;;;;;;;2.67;1.53;;;19.20;55.20;;;19.76;41.09;99126.44;4972719;28;124089;-87
2022/07/07 05:42:42;;;;;;;1.63;1.40;;;19.30;55.30;;;19.81;41.12;99123.34;4984126;28;119368;-87
2022/07/07 05:45:10;;;;;;;2.83;1.37;;;19.30;55.40;;;19.84;41.11;99122.63;4976124;28;119114;-89
2022/07/07 05:47:36;;;;;;;3.23;1.53;;;19.30;55.40;;;19.90;40.84;99114.72;5000914;28;123069;-88
2022/07/07 05:50:03;;;;;;;5.87;1.87;;;19.40;55.60;;;19.99;40.99;99106.91;4985912;28;123752;-90
2022/07/07 05:52:30;;;;;;;3.83;1.70;;;19.40;55.60;;;20.08;40.73;99109.50;4989785;28;119818;-88
2022/07/07 05:54:56;;;;;;;3.97;1.50;;;19.50;55.50;;;20.17;40.62;99112.09;4972957;28;120480;-90
2022/07/07 05:57:24;;;;;;;3.63;1.40;;;19.60;55.50;;;20.25;40.51;99103.44;4980789;28;123458;-89
2022/07/07 05:59:50;;;;;;;3.40;1.50;;;19.60;55.30;;;20.34;40.61;99099.59;4983789;28;124630;-89
2022/07/07 06:02:17;;;;;;;3.00;1.50;;;19.70;55.30;;;20.43;40.14;99105.78;4982886;28;119074;-89
2022/07/07 06:04:43;;;;;;;5.03;1.83;;;19.80;55.30;;;20.54;40.21;99115.25;4981243;28;119247;-91
2022/07/07 06:07:10;;;;;;;5.23;1.97;;;19.90;55.30;;;20.67;40.08;99116.72;4980460;28;123779;-89
2022/07/07 06:09:36;;;;;;;3.20;1.60;;;20.00;55.20;;;20.76;39.77;99113.66;4978823;28;123752;-88
2022/07/07 06:12:03;;;;;;;5.00;1.70;;;20.00;55.00;;;20.79;39.65;99103.69;4968283;28;119351;-89
2022/07/07 06:14:30;;;;;;;2.20;1.63;;;20.10;54.90;;;20.85;39.60;99108.63;4989197;28;117713;-88
2022/07/07 06:16:56;;;;;;;4.00;1.67;;;20.20;54.90;;;20.98;39.25;99114.06;4986376;28;123256;-87
2022/07/07 06:19:23;;;;;;;3.50;1.50;;;20.30;54.80;;;21.10;39.30;99113.88;4965304;28;124242;-87
2022/07/07 06:21:49;;;;;;;2.67;1.43;;;20.40;54.80;;;21.23;39.25;99115.31;4983475;28;119269;-88
2022/07/07 06:24:16;;;;;;;4.00;1.87;;;20.50;54.70;;;21.34;39.12;99113.47;4978864;28;119056;-87
2022/07/07 06:26:42;;;;;;;2.57;1.70;;;20.60;54.60;;;21.46;38.94;99109.66;4975307;28;124185;-87
2022/07/07 06:29:09;;;;;;;2.30;1.40;;;20.70;54.60;;;21.55;38.71;99107.41;4976190;28;124267;-85
2022/07/07 06:31:36;;;;;;;3.27;1.90;;;20.90;54.60;;;21.64;38.85;99101.50;4977765;28;119626;-87
2022/07/07 06:34:03;;;;;;;13.10;1.77;;;20.90;54.40;;;21.74;38.71;99097.22;4971441;28;119161;-88
2022/07/07 06:36:29;;;;;;;3.00;1.60;;;21.00;54.30;;;21.83;38.46;99090.09;4980497;28;124371;-84
2022/07/07 06:38:56;;;;;;;1.73;1.37;;;21.10;54.20;;;21.90;38.20;99083.78;4966827;28;123016;-85
2022/07/07 06:41:23;;;;;;;2.20;1.50;;;21.20;53.90;;;21.97;38.26;99095.13;4968745;28;120039;-85
2022/07/07 06:43:50;;;;;;;2.80;1.90;;;21.20;53.80;;;22.04;38.18;99085.97;4968173;28;121030;-86
2022/07/07 06:46:17;;;;;;;4.07;1.73;;;21.30;53.80;;;22.04;37.99;99083.16;4970074;28;124045;-85
2022/07/07 06:48:44;;;;;;;3.70;1.60;;;21.30;53.60;;;21.99;38.16;99095.56;4971857;28;123943;-86
2022/07/07 06:51:10;;;;;;;3.83;1.80;;;21.40;53.60;;;21.94;38.27;99089.44;4966979;28;118609;-86
2022/07/07 06:53:37;;;;;;;2.80;1.40;;;21.30;53.30;;;21.95;38.10;99096.69;4982550;28;118695;-86
2022/07/07 06:56:03;;;;;;;2.03;1.60;;;21.40;53.50;;;21.96;38.27;99092.69;4979061;28;124582;-85
2022/07/07 06:58:30;;;;;;;2.50;1.77;;;21.40;53.50;;;21.97;38.16;99100.75;4972654;28;124349;-87
2022/07/07 07:00:58;;;;;;;5.47;1.80;;;21.40;53.50;;;22.01;38.05;99100.81;4975742;28;118891;-87
2022/07/07 07:03:25;;;;;;;2.23;1.50;;;21.50;53.40;;;22.08;38.21;99094.44;4970749;28;118683;-84
2022/07/07 07:05:51;;;;;;;4.13;1.80;;;21.50;53.30;;;22.15;38.08;99100.97;4971537;28;124187;-82
2022/07/07 07:08:17;;;;;;;5.87;2.10;;;21.50;53.20;;;22.18;37.56;99105.03;4965641;28;123808;-82
2022/07/07 07:10:44;;;;;;;8.03;2.20;;;21.60;53.20;;;22.19;37.89;99104.69;4982021;28;119378;-84
2022/07/07 07:13:10;;;;;;;3.40;1.87;;;21.60;53.20;;;22.19;38.14;99096.25;4997145;28;118968;-85
2022/07/07 07:15:39;;;;;;;2.20;1.60;;;21.60;53.20;;;22.19;38.38;99096.25;4971792;28;124694;-84
2022/07/07 07:18:06;;;;;;;4.10;2.07;;;21.70;53.40;;;22.25;38.18;99105.16;4970619;28;123754;-84
2022/07/07 07:20:33;;;;;;;3.50;1.83;;;21.70;53.50;;;22.30;38.05;99112.44;4983540;28;119907;-86
2022/07/07 07:23:00;;;;;;;3.87;1.53;;;21.70;53.50;;;22.33;37.99;99122.97;4967864;28;118617;-84
2022/07/07 07:25:27;;;;;;;4.67;1.90;;;21.70;53.20;;;22.27;38.18;99109.22;4977528;28;124178;-85
2022/07/07 07:27:53;;;;;;;4.13;1.67;;;21.70;53.30;;;22.26;38.11;99112.41;4967003;28;123963;-84
2022/07/07 07:30:20;;;;;;;8.07;1.80;;;21.80;53.50;;;22.29;38.42;99114.44;4982895;28;119444;-86
2022/07/07 07:32:46;;;;;;;1.70;1.20;;;21.80;53.60;;;22.30;38.06;99107.66;4970492;28;119191;-84
2022/07/07 07:35:13;;;;;;;1.73;1.47;;;21.80;53.70;;;22.31;38.59;99105.63;4966371;28;126941;-85
2022/07/07 07:37:39;;;;;;;3.03;1.70;;;21.80;53.80;;;22.33;38.65;99106.88;4970144;28;124514;-84
2022/07/07 07:40:09;;;;;;;2.40;1.53;;;21.80;53.90;;;22.36;38.67;99108.91;4975377;28;119483;-86
2022/07/07 07:42:37;;;;;;;2.70;1.70;;;21.90;54.10;;;22.45;38.72;99120.66;4979189;28;119327;-84
2022/07/07 07:45:12;;;;;;;1.80;1.50;;;21.90;54.10;;;22.51;38.53;99115.50;4974162;28;124200;-85
2022/07/07 07:47:43;;;;;;;2.10;1.53;;;21.90;54.10;;;22.53;38.57;99127.19;4975098;28;124281;-86
2022/07/07 07:50:14;;;;;;;3.60;1.53;;;22.00;54.20;;;22.52;38.74;99134.03;4981211;28;119641;-86
2022/07/07 07:52:42;;;;;;;2.90;1.60;;;22.00;54.10;;;22.53;38.62;99140.47;4980360;28;118778;-82
2022/07/07 07:55:11;;;;;;;6.67;1.90;;;22.00;54.20;;;22.51;38.66;99140.84;4971163;28;124195;-93
2022/07/07 07:57:38;;;;;;;5.00;1.50;;;22.00;54.20;;;22.50;38.67;99145.69;4966916;28;123852;-85
2022/07/07 08:00:08;;;;;;;2.03;1.90;;;22.00;54.30;;;22.52;39.10;99150.13;4980121;28;120340;-88
2022/07/07 08:02:35;;;;;;;3.77;1.77;;;22.00;54.40;;;22.50;39.12;99144.88;4979903;28;119280;-91
2022/07/07 08:05:02;;;;;;;2.50;1.70;;;22.00;54.70;;;22.46;39.26;99149.63;4964967;28;124247;-83
2022/07/07 08:07:28;;;;;;;3.83;1.90;;;22.00;54.80;;;22.41;39.28;99164.88;4968202;28;123644;-87
2022/07/07 08:09:54;;;;;;;3.23;1.57;;;22.00;54.70;;;22.38;39.20;99154.41;4966719;28;119648;-85
2022/07/07 08:12:21;;;;;;;3.47;1.70;;;22.00;54.70;;;22.34;39.26;99159.16;4968132;28;119094;-86
2022/07/07 08:14:48;;;;;;;3.10;1.70;;;21.90;54.60;;;22.29;39.04;99139.78;4966385;28;124022;-88
2022/07/07 08:17:14;;;;;;;3.53;2.03;;;21.80;55.30;;;22.27;39.59;99130.91;4960654;28;124048;-87
2022/07/07 08:19:41;;;;;;;11.30;2.63;;;21.80;54.90;;;22.25;39.40;99127.69;4973631;28;120282;-87
2022/07/07 08:22:10;;;;;;;3.63;1.97;;;21.80;55.70;;;22.20;39.87;99128.81;4981417;28;120167;-90
2022/07/07 08:24:37;;;;;;;6.20;2.20;;;21.80;55.30;;;22.14;40.14;99121.06;4966989;28;124349;-88
2022/07/07 08:27:04;;;;;;;15.03;2.40;;;21.70;55.50;;;22.11;40.20;99113.38;4965882;28;123764;-89
2022/07/07 08:29:30;;;;;;;4.37;2.50;;;21.60;55.80;;;22.07;40.18;99110.53;4983507;28;119604;-89
2022/07/07 08:31:58;;;;;;;3.97;1.80;;;21.60;56.10;;;22.06;40.45;99114.53;4973567;28;118920;-88
2022/07/07 08:34:24;;;;;;;4.63;1.97;;;21.60;56.30;;;22.05;40.52;99115.72;4972956;28;124755;-89
2022/07/07 08:36:52;;;;;;;2.37;1.80;;;21.60;56.50;;;22.05;40.66;99110.91;4977831;28;123125;-93
2022/07/07 08:39:19;;;;;;;3.20;2.13;;;21.60;56.50;;;22.08;40.68;99119.78;4986393;28;118786;-89
2022/07/07 08:41:45;;;;;;;3.63;1.80;;;21.60;56.70;;;22.08;41.21;99129.03;4985725;28;119248;-90
2022/07/07 08:44:12;;;;;;;2.90;1.87;;;21.60;57.00;;;22.05;40.88;99115.72;4989663;28;124025;-91
2022/07/07 08:46:41;;;;;;;3.47;2.00;;;21.60;57.10;;;22.05;41.25;99124.16;4983842;28;123697;-87
2022/07/07 08:49:09;;;;;;;5.50;2.20;;;21.60;57.30;;;22.07;41.57;99124.59;4975007;28;117375;-88
2022/07/07 08:51:45;;;;;;;4.50;1.93;;;21.60;57.50;;;22.06;41.47;99117.34;4975992;28;118712;-89
2022/07/07 08:54:15;;;;;;;4.50;2.33;;;21.60;57.80;;;22.08;41.54;99125.41;4995240;28;124343;-87
2022/07/07 08:56:43;;;;;;;3.60;2.43;;;21.60;58.00;;;22.06;42.23;99120.97;4971061;28;123212;-86
2022/07/07 08:59:13;;;;;;;6.23;2.43;;;21.60;58.50;;;22.07;42.15;99104.91;4974389;28;119701;-86
2022/07/07 09:01:40;;;;;;;2.57;1.87;;;21.60;58.60;;;22.11;42.52;99107.75;4980159;28;119011;-85
2022/07/07 09:04:07;;;;;;;3.30;2.17;;;21.60;59.00;;;22.15;42.55;99100.97;4980727;28;123957;-88
2022/07/07 09:06:33;;;;;;;3.93;1.87;;;21.70;59.10;;;22.21;42.64;99093.03;4973319;28;123969;-91
2022/07/07 09:09:03;;;;;;;3.83;2.23;;;21.60;59.30;;;22.28;42.54;99093.13;4974212;28;120326;-90
2022/07/07 09:11:33;;;;;;;4.77;2.40;;;21.70;59.70;;;22.34;42.90;99091.59;4982373;28;120709;-90
2022/07/07 09:14:11;;;;;;;3.23;2.50;;;21.80;60.10;;;22.43;42.67;99102.53;4970884;28;124821;-86
2022/07/07 09:16:39;;;;;;;7.43;2.53;;;21.90;60.20;;;22.47;42.67;99114.66;4968988;28;122824;-89
2022/07/07 09:19:19;;;;;;;4.93;2.63;;;21.90;60.30;;;22.47;42.38;99107.03;4969054;28;117821;-88
2022/07/07 09:21:47;;;;;;;6.33;2.43;;;21.90;60.00;;;22.44;42.63;99113.44;4983027;28;119462;-87
2022/07/07 09:24:14;;;;;;;3.97;2.30;;;21.90;60.10;;;22.43;42.73;99116.63;4984020;28;123024;-86
2022/07/07 09:26:53;;;;;;;8.80;2.50;;;22.00;60.40;;;22.42;43.43;99138.34;4975238;28;122833;-89
2022/07/07 09:29:22;;;;;;;3.17;2.23;;;22.00;60.60;;;22.41;43.27;99139.53;4975445;28;118420;-90
2022/07/07 09:31:56;;;;;;;3.80;1.90;;;22.00;60.90;;;22.42;43.94;99131.91;4966786;28;119024;-89
2022/07/07 09:34:27;;;;;;;2.67;1.53;;;22.00;61.40;;;22.41;44.49;99133.09;4967841;28;123552;-88
2022/07/07 09:39:42;;;;;;;3.97;2.00;;;21.90;62.70;;;22.31;45.04;99128.16;4974869;28;119166;-89
2022/07/07 09:42:31;;;;;;;1.93;1.40;;;21.90;63.20;;;22.24;45.17;99123.22;4969162;28;119029;-88
2022/07/07 09:45:08;;;;;;;4.50;1.93;;;21.90;63.30;;;22.23;45.61;99110.38;4954080;28;122096;-91
2022/07/07 09:47:35;;;;;;;2.20;1.87;;;21.80;63.40;;;22.20;45.35;99154.16;4970596;28;124335;-86
2022/07/07 09:50:06;;;;;;;3.50;1.50;;;21.80;63.80;;;22.17;45.89;99138.00;4965444;28;119283;-88
2022/07/07 09:52:42;;;;;;;2.50;1.80;;;21.80;64.00;;;22.17;45.66;99142.84;4984069;28;119047;-89
2022/07/07 09:55:11;;;;;;;2.40;2.00;;;21.80;64.10;;;22.15;45.96;99153.66;4979764;28;124767;-90
2022/07/07 09:57:40;;;;;;;4.10;1.80;;;21.70;64.30;;;22.17;46.01;99145.66;4982487;28;122887;-88
2022/07/07 10:00:08;;;;;;;1.97;1.70;;;21.70;64.40;;;22.14;45.82;99171.72;4984646;28;119707;-89
2022/07/07 10:02:36;;;;;;;2.90;1.70;;;21.70;64.30;;;22.11;45.87;99156.44;4973998;28;119694;-92
2022/07/07 10:05:04;;;;;;;3.97;1.97;;;21.70;64.30;;;22.06;45.31;99151.94;4967878;28;124275;-87
2022/07/07 10:07:34;;;;;;;2.20;1.80;;;21.60;64.10;;;22.03;45.85;99163.13;4974252;28;125901;-88
2022/07/07 10:10:07;;;;;;;4.50;1.87;;;21.60;64.30;;;22.02;45.81;99151.06;4981850;28;118660;-88
2022/07/07 10:12:44;;;;;;;7.00;2.50;;;21.60;64.40;;;22.00;45.55;99145.03;4974662;28;118170;-90
2022/07/07 10:15:13;;;;;;;2.13;1.80;;;21.60;64.40;;;22.04;45.60;99145.88;4976274;28;124229;-87
2022/07/07 10:17:42;;;;;;;3.83;2.03;;;21.60;64.60;;;22.08;45.46;99153.53;4985229;28;123798;-89
2022/07/07 10:20:09;;;;;;;2.93;2.00;;;21.60;64.60;;;22.08;45.44;99157.16;4967234;28;119289;-88
2022/07/07 10:22:37;;;;;;;3.00;2.00;;;21.60;64.70;;;22.08;45.67;99176.06;4973022;28;117081;-94
2022/07/07 10:25:08;;;;;;;4.13;2.00;;;21.60;64.80;;;22.08;45.92;99173.25;4979592;28;122217;-89
2022/07/07 10:27:34;;;;;;;3.73;1.87;;;21.60;64.90;;;22.10;45.94;99165.25;4961833;28;123873;-90
2022/07/07 10:30:05;;;;;;;2.73;2.27;;;21.60;65.00;;;22.12;45.63;99158.03;4979723;28;119244;-91
2022/07/07 10:32:51;;;;;;;3.77;1.63;;;21.60;64.90;;;22.14;45.92;99152.84;4982293;28;119024;-94
2022/07/07 10:35:19;;;;;;;4.33;1.90;;;21.70;65.00;;;22.22;45.62;99150.97;4979172;28;124220;-89
2022/07/07 10:37:49;;;;;;;2.87;1.90;;;21.70;65.00;;;22.26;45.37;99158.25;4968727;28;122969;-90
2022/07/07 10:40:21;;;;;;;1.67;1.57;;;21.70;64.70;;;22.28;45.32;99155.88;4971316;28;118765;-89
2022/07/07 10:43:26;;;;;;;2.03;1.60;;;21.80;64.70;;;22.31;45.10;99150.66;4976003;28;119316;-89
2022/07/07 10:45:54;;;;;;;6.43;2.30;;;21.80;64.60;;;22.37;44.95;99149.94;4982602;28;124801;-89
2022/07/07 10:48:50;;;;;;;4.90;1.80;;;21.90;64.60;;;22.42;45.16;99155.22;4969728;28;123812;-90
2022/07/07 10:51:24;;;;;;;2.10;1.63;;;21.90;64.40;;;22.47;45.05;99159.72;4983275;28;119434;-91
2022/07/07 10:54:06;;;;;;;2.70;1.80;;;22.00;64.40;;;22.49;45.14;99148.91;4991153;28;121034;-89
2022/07/07 10:56:53;;;;;;;6.13;2.00;;;22.00;64.50;;;22.49;44.92;99155.31;4984244;28;124633;-89
2022/07/07 10:59:21;;;;;;;3.03;1.70;;;22.00;64.40;;;22.54;45.09;99158.97;4972161;28;124351;-90
2022/07/07 11:02:29;;;;;;;3.93;1.53;;;22.10;64.30;;;22.58;44.69;99174.75;4975338;28;119929;-89
2022/07/07 11:05:00;;;;;;;3.53;1.53;;;22.10;64.30;;;22.61;44.49;99161.91;4972270;28;118990;-88
2022/07/07 11:07:28;;;;;;;2.70;1.80;;;22.10;64.20;;;22.61;44.41;99170.34;4976110;28;124613;-88
2022/07/07 11:10:06;;;;;;;2.03;1.60;;;22.10;64.20;;;22.61;44.66;99164.72;4982627;28;123594;-89
2022/07/07 11:12:48;;;;;;;2.00;1.70;;;22.10;64.00;;;22.63;44.65;99176.41;4972360;28;119627;-89
2022/07/07 11:15:14;;;;;;;3.60;1.90;;;22.20;64.10;;;22.62;44.79;99180.41;4972819;28;118279;-87
2022/07/07 11:17:52;;;;;;;5.00;2.30;;;22.20;64.10;;;22.61;44.90;99167.53;4964171;28;123733;-86
2022/07/07 11:20:27;;;;;;;3.77;1.90;;;22.10;64.20;;;22.58;45.08;99171.91;4966133;28;123507;-87
2022/07/07 11:23:12;;;;;;;3.53;1.57;;;22.10;64.20;;;22.57;44.53;99169.47;4976479;28;119621;-87
2022/07/07 11:25:40;;;;;;;2.90;1.70;;;22.10;64.20;;;22.60;44.77;99169.53;4971453;28;118912;-88
2022/07/07 11:28:09;;;;;;;2.90;1.50;;;22.10;64.30;;;22.60;45.03;99166.72;4976495;28;123976;-86
2022/07/07 11:30:39;;;;;;;3.33;1.50;;;22.10;64.40;;;22.60;44.78;99177.19;4972968;28;123933;-88
2022/07/07 11:33:07;;;;;;;4.03;1.53;;;22.20;64.40;;;22.62;44.93;99174.78;4988117;28;118571;-87
2022/07/07 11:35:37;;;;;;;2.30;1.67;;;22.20;64.40;;;22.63;44.81;99176.41;4978094;28;118000;-87
2022/07/07 11:38:08;;;;;;;4.60;2.20;;;22.20;64.40;;;22.64;44.62;99161.94;4992292;28;123263;-87
2022/07/07 11:40:38;;;;;;;2.17;1.47;;;22.20;64.30;;;22.66;44.50;99175.63;4986315;28;124399;-86
2022/07/07 11:43:05;;;;;;;3.73;1.67;;;22.20;64.10;;;22.67;44.45;99172.41;4988220;28;119934;-84
2022/07/07 11:45:32;;;;;;;3.30;1.77;;;22.20;64.10;;;22.68;44.41;99176.88;4976584;28;120054;-87
2022/07/07 11:48:02;;;;;;;2.37;1.53;;;22.20;64.60;;;22.70;44.52;99182.09;4969084;28;124541;-86
2022/07/07 11:50:33;;;;;;;3.47;1.37;;;22.30;64.10;;;22.70;44.03;99188.56;4978676;28;122799;-85
2022/07/07 11:53:03;;;;;;;2.40;1.50;;;22.20;63.80;;;22.71;44.31;99181.72;4974728;28;119523;-86
2022/07/07 11:55:30;;;;;;;3.73;1.77;;;22.20;63.60;;;22.71;44.38;99189.38;4963418;28;117882;-87
2022/07/07 11:58:07;;;;;;;3.57;1.93;;;22.20;63.70;;;22.71;44.50;99180.94;4989794;28;124323;-86
2022/07/07 12:00:39;;;;;;;3.13;1.93;;;23.10;64.60;;;22.71;44.31;99183.75;4966869;28;123347;-87
2022/07/07 12:03:07;;;;;;;2.53;1.70;;;22.20;63.70;;;22.71;44.15;99183.75;4981298;28;118684;-86
2022/07/07 12:05:38;;;;;;;3.33;2.10;;;22.20;63.70;;;22.69;43.99;99181.31;4973636;28;119425;-87
2022/07/07 12:08:08;;;;;;;3.80;2.00;;;22.20;63.50;;;22.70;43.97;99184.91;4980176;28;124687;-87
2022/07/07 12:10:40;;;;;;;5.37;2.00;;;22.20;63.50;;;22.66;44.12;99178.44;4980891;28;123177;-86
2022/07/07 12:13:13;;;;;;;3.43;2.00;;;22.20;63.40;;;22.65;44.35;99179.66;4982584;28;119219;-84
2022/07/07 12:15:42;;;;;;;3.00;1.80;;;22.20;63.50;;;22.65;44.38;99182.47;4967130;28;118932;-84
2022/07/07 12:18:10;;;;;;;5.53;2.10;;;22.20;63.50;;;22.67;43.96;99171.63;4966752;28;124397;-85
2022/07/07 12:20:39;;;;;;;3.80;1.83;;;22.20;63.50;;;22.69;43.90;99177.69;4974718;28;97168;-85
2022/07/07 12:23:15;;;;;;;3.77;2.17;;;22.20;63.50;;;22.72;44.18;99185.34;4978273;28;119814;-86
2022/07/07 12:25:45;;;;;;;3.60;2.00;;;22.30;63.50;;;22.73;43.97;99178.53;4978511;28;119401;-88
2022/07/07 12:28:11;;;;;;;2.97;1.87;;;22.30;63.40;;;22.75;43.91;99189.41;4972778;28;124082;-89
2022/07/07 12:30:56;;;;;;;3.20;2.17;;;23.40;64.50;;;22.75;44.10;99178.94;4976638;28;123993;-90
2022/07/07 12:33:33;;;;;;;2.50;1.70;;;22.30;63.20;;;22.76;43.60;99183.41;4977820;28;120367;-87
2022/07/07 12:36:21;;;;;;;4.93;1.93;;;22.30;63.00;;;22.72;43.52;99182.53;4971176;28;120165;-88
2022/07/07 12:38:52;;;;;;;2.73;1.70;;;22.30;62.70;;;22.70;43.51;99182.94;4973162;28;124295;-89
2022/07/07 12:41:39;;;;;;;3.30;1.80;;;21.70;62.00;;;22.66;43.43;99170.00;4973101;28;123826;-88
2022/07/07 12:44:22;;;;;;;4.23;1.80;;;22.20;62.60;;;22.66;43.57;99181.28;4980343;28;119175;-88
2022/07/07 12:46:49;;;;;;;4.10;1.53;;;22.20;62.90;;;22.66;44.03;99175.63;4978763;28;118637;-87
2022/07/07 12:49:16;;;;;;;2.60;1.73;;;22.20;63.20;;;22.66;44.28;99184.91;4971523;28;123653;-86
2022/07/07 12:51:49;;;;;;;4.97;2.07;;;22.20;63.40;;;22.69;44.11;99180.50;4972554;28;124830;-88
2022/07/07 12:54:29;;;;;;;4.67;2.43;;;22.20;63.50;;;22.69;44.30;99178.47;4975439;28;120563;-87
2022/07/07 12:57:03;;;;;;;5.90;1.87;;;22.30;63.90;;;22.68;44.61;99174.06;4966719;28;119649;-87
2022/07/07 12:59:44;;;;;;;2.90;1.63;;;22.30;63.90;;;22.67;44.46;99160.34;4975396;28;123541;-87
2022/07/07 13:02:13;;;;;;;2.37;1.70;;;22.30;64.20;;;22.66;44.69;99170.81;4972725;28;123608;-88
2022/07/07 13:04:42;;;;;;;5.20;2.27;;;22.20;64.40;;;22.69;44.87;99160.78;4981372;28;119299;-87
2022/07/07 13:07:10;;;;;;;5.20;2.20;;;22.20;64.60;;;22.69;44.65;99170.03;4970932;28;119383;-89
2022/07/07 13:09:36;;;;;;;3.80;1.80;;;22.30;64.50;;;22.68;44.32;99184.53;4973130;28;124213;-88
2022/07/07 13:12:09;;;;;;;2.33;1.97;;;22.20;64.00;;;22.64;44.13;99189.28;4983594;28;123246;-86
2022/07/07 13:14:36;;;;;;;2.70;1.90;;;22.30;64.20;;;22.63;44.43;99179.22;4973179;28;119397;-91
2022/07/07 13:17:03;;;;;;;5.30;2.20;;;22.20;64.20;;;22.66;44.39;99175.63;4972128;28;118763;-90